createdAt,value
2018-10-09T00:00:45.190Z,8.78
2018-10-09T00:01:45.088Z,8.83
2018-10-09T00:02:45.118Z,8.86
2018-10-09T00:03:45.003Z,8.80
2018-10-09T00:04:45.385Z,8.81
2018-10-09T00:05:44.963Z,8.92
2018-10-09T00:07:44.973Z,8.95
2018-10-09T00:08:44.919Z,8.96
2018-10-09T00:09:44.885Z,9.01
2018-10-09T00:10:45.160Z,9.01
2018-10-09T00:11:44.854Z,9.06
2018-10-09T00:12:44.874Z,8.96
2018-10-09T00:13:44.805Z,9.03
2018-10-09T00:14:44.788Z,9.06
2018-10-09T00:15:44.763Z,9.04
2018-10-09T00:16:45.093Z,9.09
2018-10-09T00:17:44.728Z,9.09
2018-10-09T00:18:44.864Z,9.11
2018-10-09T00:19:44.694Z,9.11
2018-10-09T00:20:44.771Z,9.06
2018-10-09T00:21:44.658Z,9.12
2018-10-09T00:22:44.624Z,9.11
2018-10-09T00:23:44.956Z,9.09
2018-10-09T00:24:44.589Z,9.06
2018-10-09T00:25:44.650Z,9.06
2018-10-09T00:26:44.803Z,9.06
2018-10-09T00:27:44.575Z,8.90
2018-10-09T00:28:44.515Z,8.93
2018-10-09T00:29:44.485Z,8.81
2018-10-09T00:30:44.770Z,8.78
2018-10-09T00:31:44.504Z,8.77
2018-10-09T00:32:44.735Z,8.78
2018-10-09T00:33:44.415Z,8.80
2018-10-09T00:34:44.504Z,8.77
2018-10-09T00:35:44.375Z,8.72
2018-10-09T00:36:44.425Z,8.80
2018-10-09T00:37:44.632Z,8.89
2018-10-09T00:38:44.315Z,8.86
2018-10-09T00:39:44.303Z,8.93
2018-10-09T00:40:44.804Z,8.96
2018-10-09T00:41:44.251Z,8.96
2018-10-09T00:42:44.233Z,8.95
2018-10-09T00:43:44.212Z,9.01
2018-10-09T00:44:44.545Z,9.06
2018-10-09T00:45:44.176Z,9.03
2018-10-09T00:46:44.166Z,8.92
2018-10-09T00:47:44.134Z,8.98
2018-10-09T00:48:44.262Z,8.98
2018-10-09T00:49:44.153Z,8.92
2018-10-09T00:50:44.308Z,8.98
2018-10-09T00:51:44.416Z,8.99
2018-10-09T00:52:44.044Z,8.93
2018-10-09T00:53:44.021Z,8.96
2018-10-09T00:54:44.107Z,8.90
2018-10-09T00:56:44.024Z,8.88
2018-10-09T00:57:43.938Z,8.96
2018-10-09T00:58:44.272Z,8.93
2018-10-09T00:59:43.999Z,8.93
2018-10-09T01:00:44.573Z,9.01
2018-10-09T01:01:43.909Z,8.93
2018-10-09T01:02:43.845Z,9.01
2018-10-09T01:03:43.822Z,8.96
2018-10-09T01:05:44.088Z,8.92
2018-10-09T01:06:43.765Z,9.04
2018-10-09T01:07:43.744Z,9.01
2018-10-09T01:08:43.832Z,8.98
2018-10-09T01:09:43.704Z,8.99
2018-10-09T01:10:43.693Z,8.93
2018-10-09T01:11:43.965Z,8.93
2018-10-09T01:12:46.055Z,8.88
2018-10-09T01:13:43.626Z,8.92
2018-10-09T01:14:43.709Z,8.80
2018-10-09T01:15:43.591Z,8.85
2018-10-09T01:16:43.572Z,8.89
2018-10-09T01:17:43.931Z,8.86
2018-10-09T01:18:43.685Z,8.90
2018-10-09T01:19:43.507Z,8.90
2018-10-09T01:20:43.489Z,8.90
2018-10-09T01:21:43.474Z,8.92
2018-10-09T01:22:43.450Z,8.90
2018-10-09T01:23:43.728Z,8.85
2018-10-09T01:24:43.463Z,8.93
2018-10-09T01:25:43.753Z,8.92
2018-10-09T01:26:43.366Z,8.83
2018-10-09T01:27:43.405Z,8.78
2018-10-09T01:28:44.139Z,8.77
2018-10-09T01:30:43.640Z,8.81
2018-10-09T01:31:43.371Z,8.78
2018-10-09T01:32:43.255Z,8.95
2018-10-09T01:33:43.316Z,8.83
2018-10-09T01:34:43.263Z,8.93
2018-10-09T01:35:43.253Z,8.86
2018-10-09T01:36:43.480Z,8.77
2018-10-09T01:37:43.209Z,8.81
2018-10-09T01:38:43.183Z,8.80
2018-10-09T01:39:43.125Z,8.71
2018-10-09T01:40:43.100Z,8.68
2018-10-09T01:42:43.401Z,8.72
2018-10-09T01:43:43.100Z,8.68
2018-10-09T01:44:43.317Z,8.67
2018-10-09T01:45:43.042Z,8.59
2018-10-09T01:46:42.982Z,8.57
2018-10-09T01:47:43.028Z,8.62
2018-10-09T01:48:42.945Z,8.65
2018-10-09T01:49:43.220Z,8.67
2018-10-09T01:50:44.098Z,8.68
2018-10-09T01:51:42.987Z,8.65
2018-10-09T01:52:42.858Z,8.65
2018-10-09T01:53:43.084Z,8.68
2018-10-09T01:54:42.873Z,8.75
2018-10-09T01:55:42.848Z,8.70
2018-10-09T01:56:43.132Z,8.70
2018-10-09T01:57:42.769Z,8.75
2018-10-09T01:58:42.737Z,8.72
2018-10-09T01:59:42.720Z,8.70
2018-10-09T02:00:42.704Z,8.72
2018-10-09T02:01:42.680Z,8.74
2018-10-09T02:02:42.664Z,8.81
2018-10-09T02:03:43.039Z,8.81
2018-10-09T02:04:42.923Z,8.78
2018-10-09T02:05:42.704Z,8.90
2018-10-09T02:06:42.594Z,8.83
2018-10-09T02:07:42.562Z,8.88
2018-10-09T02:08:42.550Z,8.90
2018-10-09T02:09:42.526Z,8.89
2018-10-09T02:10:42.809Z,8.93
2018-10-09T02:11:42.529Z,8.93
2018-10-09T02:12:42.465Z,8.88
2018-10-09T02:13:42.450Z,8.78
2018-10-09T02:14:42.487Z,8.75
2018-10-09T02:15:42.405Z,8.78
2018-10-09T02:16:42.440Z,8.81
2018-10-09T02:17:42.665Z,8.74
2018-10-09T02:18:42.341Z,8.75
2018-10-09T02:19:42.331Z,8.78
2018-10-09T02:20:42.410Z,8.75
2018-10-09T02:21:42.284Z,8.83
2018-10-09T02:22:42.313Z,8.81
2018-10-09T02:23:42.302Z,8.77
2018-10-09T02:24:42.532Z,8.80
2018-10-09T02:25:42.209Z,8.80
2018-10-09T02:26:42.261Z,8.78
2018-10-09T02:27:42.270Z,8.72
2018-10-09T02:28:42.200Z,8.70
2018-10-09T02:29:42.127Z,8.65
2018-10-09T02:30:42.111Z,8.50
2018-10-09T02:31:42.493Z,8.57
2018-10-09T02:32:42.064Z,8.55
2018-10-09T02:33:42.079Z,8.50
2018-10-09T02:34:42.029Z,8.52
2018-10-09T02:35:42.004Z,8.53
2018-10-09T02:36:44.440Z,8.55
2018-10-09T02:37:42.328Z,8.60
2018-10-09T02:38:41.947Z,8.67
2018-10-09T02:39:41.930Z,8.62
2018-10-09T02:40:41.911Z,8.60
2018-10-09T02:41:42.499Z,8.59
2018-10-09T02:42:41.919Z,8.70
2018-10-09T02:43:42.201Z,8.71
2018-10-09T02:44:41.888Z,8.72
2018-10-09T02:45:41.835Z,8.65
2018-10-09T02:46:41.892Z,8.70
2018-10-09T02:47:41.893Z,8.70
2018-10-09T02:48:41.801Z,8.68
2018-10-09T02:49:42.914Z,8.71
2018-10-09T02:50:41.766Z,8.71
2018-10-09T02:51:41.756Z,8.68
2018-10-09T02:52:41.683Z,8.62
2018-10-09T02:53:41.659Z,8.62
2018-10-09T02:54:41.684Z,8.49
2018-10-09T02:55:41.920Z,8.42
2018-10-09T02:56:41.591Z,8.41
2018-10-09T02:57:41.678Z,8.41
2018-10-09T02:58:41.556Z,8.46
2018-10-09T02:59:41.535Z,8.37
2018-10-09T03:00:43.978Z,8.37
2018-10-09T03:01:41.896Z,8.39
2018-10-09T03:02:41.473Z,8.35
2018-10-09T03:03:41.561Z,8.35
2018-10-09T03:04:41.443Z,8.32
2018-10-09T03:05:41.415Z,8.28
2018-10-09T03:06:41.573Z,8.32
2018-10-09T03:07:41.681Z,8.29
2018-10-09T03:08:41.489Z,8.20
2018-10-09T03:09:41.345Z,8.19
2018-10-09T03:10:41.320Z,8.14
2018-10-09T03:11:41.351Z,8.12
2018-10-09T03:12:41.284Z,8.05
2018-10-09T03:13:41.260Z,8.14
2018-10-09T03:14:41.543Z,8.05
2018-10-09T03:15:41.229Z,7.98
2018-10-09T03:16:41.263Z,8.02
2018-10-09T03:17:41.231Z,7.96
2018-10-09T03:18:41.164Z,7.96
2018-10-09T03:19:41.140Z,7.91
2018-10-09T03:20:41.175Z,7.88
2018-10-09T03:21:41.716Z,7.81
2018-10-09T03:23:41.293Z,7.81
2018-10-09T03:24:41.055Z,7.88
2018-10-09T03:25:41.725Z,7.88
2018-10-09T03:26:41.056Z,7.86
2018-10-09T03:27:40.988Z,7.83
2018-10-09T03:28:41.272Z,7.88
2018-10-09T03:29:41.043Z,7.86
2018-10-09T03:30:41.082Z,7.87
2018-10-09T03:31:40.903Z,7.88
2018-10-09T03:32:41.223Z,7.94
2018-10-09T03:33:40.869Z,7.92
2018-10-09T03:34:40.962Z,7.84
2018-10-09T03:35:41.138Z,7.94
2018-10-09T03:36:40.957Z,7.96
2018-10-09T03:37:41.392Z,7.91
2018-10-09T03:38:40.764Z,7.95
2018-10-09T03:39:40.939Z,7.84
2018-10-09T03:40:40.725Z,7.88
2018-10-09T03:41:40.806Z,7.92
2018-10-09T03:42:40.983Z,7.91
2018-10-09T03:43:40.667Z,7.92
2018-10-09T03:44:40.748Z,7.87
2018-10-09T03:45:40.624Z,7.92
2018-10-09T03:46:40.612Z,7.84
2018-10-09T03:47:41.342Z,7.83
2018-10-09T03:48:40.642Z,7.83
2018-10-09T03:49:40.860Z,7.81
2018-10-09T03:50:40.588Z,7.78
2018-10-09T03:51:40.505Z,7.80
2018-10-09T03:52:41.079Z,7.78
2018-10-09T03:53:40.636Z,7.77
2018-10-09T03:54:40.678Z,7.86
2018-10-09T03:55:40.636Z,7.80
2018-10-09T03:56:40.883Z,7.78
2018-10-09T03:57:40.391Z,7.71
2018-10-09T03:58:40.522Z,7.80
2018-10-09T03:59:40.415Z,7.83
2018-10-09T04:00:40.324Z,7.81
2018-10-09T04:01:40.320Z,7.83
2018-10-09T04:02:40.601Z,7.69
2018-10-09T04:03:40.312Z,7.86
2018-10-09T04:05:40.376Z,7.84
2018-10-09T04:06:40.204Z,7.80
2018-10-09T04:07:40.193Z,7.78
2018-10-09T04:08:40.464Z,7.84
2018-10-09T04:09:40.181Z,7.88
2018-10-09T04:10:40.129Z,7.94
2018-10-09T04:11:40.158Z,7.86
2018-10-09T04:12:40.154Z,7.88
2018-10-09T04:13:40.116Z,7.95
2018-10-09T04:15:40.099Z,7.88
2018-10-09T04:16:40.428Z,7.88
2018-10-09T04:17:39.993Z,7.84
2018-10-09T04:18:40.017Z,7.81
2018-10-09T04:20:40.285Z,7.80
2018-10-09T04:21:39.960Z,7.91
2018-10-09T04:22:39.984Z,7.87
2018-10-09T04:23:39.886Z,7.83
2018-10-09T04:24:39.852Z,7.81
2018-10-09T04:25:39.824Z,7.81
2018-10-09T04:26:40.162Z,7.76
2018-10-09T04:27:39.776Z,7.86
2018-10-09T04:28:39.757Z,7.73
2018-10-09T04:29:39.745Z,7.78
2018-10-09T04:30:39.720Z,7.76
2018-10-09T04:31:39.696Z,7.71
2018-10-09T04:32:39.995Z,7.86
2018-10-09T04:34:39.890Z,7.78
2018-10-09T04:35:39.701Z,7.77
2018-10-09T04:36:39.615Z,7.69
2018-10-09T04:37:39.884Z,7.66
2018-10-09T04:38:39.858Z,7.77
2018-10-09T04:39:39.544Z,7.71
2018-10-09T04:40:39.570Z,7.71
2018-10-09T04:41:39.499Z,7.71
2018-10-09T04:42:39.479Z,7.86
2018-10-09T04:43:39.460Z,7.86
2018-10-09T04:44:39.433Z,7.84
2018-10-09T04:45:39.939Z,7.88
2018-10-09T04:46:39.448Z,7.76
2018-10-09T04:47:39.400Z,7.71
2018-10-09T04:48:39.455Z,7.86
2018-10-09T04:49:39.336Z,7.74
2018-10-09T04:50:39.316Z,7.84
2018-10-09T04:51:39.321Z,7.77
2018-10-09T04:52:39.769Z,7.78
2018-10-09T04:53:39.308Z,7.69
2018-10-09T04:54:39.543Z,7.73
2018-10-09T04:55:39.515Z,7.73
2018-10-09T04:56:39.310Z,7.86
2018-10-09T04:57:39.185Z,7.80
2018-10-09T04:58:39.202Z,7.76
2018-10-09T04:59:39.488Z,7.91
2018-10-09T05:00:39.162Z,7.91
2018-10-09T05:01:39.094Z,7.84
2018-10-09T05:02:39.088Z,7.88
2018-10-09T05:03:39.057Z,7.91
2018-10-09T05:04:39.183Z,7.94
2018-10-09T05:05:39.024Z,7.96
2018-10-09T05:06:39.345Z,7.91
2018-10-09T05:07:38.977Z,7.98
2018-10-09T05:09:38.933Z,7.98
2018-10-09T05:10:38.963Z,8.06
2018-10-09T05:11:38.893Z,7.99
2018-10-09T05:12:38.875Z,7.96
2018-10-09T05:13:39.160Z,7.95
2018-10-09T05:14:38.882Z,7.95
2018-10-09T05:15:38.818Z,7.99
2018-10-09T05:16:38.792Z,7.92
2018-10-09T05:17:38.887Z,7.87
2018-10-09T05:18:38.755Z,7.78
2018-10-09T05:19:38.783Z,7.76
2018-10-09T05:20:39.342Z,7.68
2018-10-09T05:21:38.699Z,7.54
2018-10-09T05:22:38.724Z,7.61
2018-10-09T05:23:38.654Z,7.57
2018-10-09T05:24:38.654Z,7.49
2018-10-09T05:25:38.611Z,7.40
2018-10-09T05:26:38.587Z,7.26
2018-10-09T05:27:38.875Z,7.29
2018-10-09T05:28:38.609Z,7.25
2018-10-09T05:29:38.536Z,7.18
2018-10-09T05:30:38.509Z,7.19
2018-10-09T05:31:38.617Z,7.10
2018-10-09T05:32:38.469Z,7.11
2018-10-09T05:33:38.853Z,7.15
2018-10-09T05:34:38.494Z,7.16
2018-10-09T05:35:38.405Z,7.18
2018-10-09T05:36:38.389Z,7.03
2018-10-09T05:37:38.441Z,7.13
2018-10-09T05:38:38.344Z,7.18
2018-10-09T05:39:38.619Z,7.26
2018-10-09T05:40:38.703Z,7.31
2018-10-09T05:41:38.339Z,7.34
2018-10-09T05:42:38.260Z,7.33
2018-10-09T05:43:38.244Z,7.40
2018-10-09T05:44:38.277Z,7.39
2018-10-09T05:45:38.500Z,7.46
2018-10-09T05:46:38.360Z,7.46
2018-10-09T05:47:38.168Z,7.52
2018-10-09T05:48:38.144Z,7.57
2018-10-09T05:49:38.128Z,7.54
2018-10-09T05:50:38.145Z,7.47
2018-10-09T05:51:38.374Z,7.55
2018-10-09T05:52:38.240Z,7.57
2018-10-09T05:53:38.037Z,7.61
2018-10-09T05:54:38.063Z,7.57
2018-10-09T05:55:38.081Z,7.57
2018-10-09T05:56:38.278Z,7.54
2018-10-09T05:57:38.251Z,7.55
2018-10-09T05:58:37.940Z,7.62
2018-10-09T05:59:37.922Z,7.52
2018-10-09T06:00:38.049Z,7.52
2018-10-09T06:01:37.869Z,7.60
2018-10-09T06:02:38.335Z,7.54
2018-10-09T06:03:38.137Z,7.47
2018-10-09T06:04:37.820Z,7.57
2018-10-09T06:06:37.789Z,7.54
2018-10-09T06:07:37.902Z,7.64
2018-10-09T06:08:37.734Z,7.61
2018-10-09T06:09:37.717Z,7.55
2018-10-09T06:10:38.058Z,7.55
2018-10-09T06:11:37.664Z,7.68
2018-10-09T06:12:37.649Z,7.71
2018-10-09T06:13:37.642Z,7.71
2018-10-09T06:14:37.663Z,7.74
2018-10-09T06:15:37.719Z,7.71
2018-10-09T06:16:37.583Z,7.77
2018-10-09T06:17:37.938Z,7.66
2018-10-09T06:18:37.529Z,7.80
2018-10-09T06:19:37.553Z,7.83
2018-10-09T06:20:37.495Z,7.83
2018-10-09T06:21:37.551Z,7.76
2018-10-09T06:22:37.445Z,7.83
2018-10-09T06:23:37.470Z,7.78
2018-10-09T06:24:37.732Z,7.84
2018-10-09T06:25:37.449Z,7.87
2018-10-09T06:26:37.414Z,7.86
2018-10-09T06:27:37.394Z,7.78
2018-10-09T06:28:37.376Z,7.94
2018-10-09T06:29:37.302Z,7.94
2018-10-09T06:30:37.281Z,8.02
2018-10-09T06:31:37.663Z,8.05
2018-10-09T06:32:37.304Z,7.99
2018-10-09T06:33:37.246Z,8.04
2018-10-09T06:34:37.213Z,8.04
2018-10-09T06:35:37.184Z,8.04
2018-10-09T06:36:37.158Z,8.05
2018-10-09T06:37:37.214Z,8.06
2018-10-09T06:38:37.689Z,8.09
2018-10-09T06:39:37.118Z,8.16
2018-10-09T06:40:37.166Z,8.09
2018-10-09T06:41:37.118Z,8.10
2018-10-09T06:42:37.098Z,8.09
2018-10-09T06:43:37.152Z,8.13
2018-10-09T06:44:37.053Z,8.14
2018-10-09T06:45:37.282Z,8.17
2018-10-09T06:46:37.022Z,8.23
2018-10-09T06:47:36.991Z,8.34
2018-10-09T06:48:36.924Z,8.26
2018-10-09T06:49:37.022Z,8.31
2018-10-09T06:50:36.935Z,8.34
2018-10-09T06:51:36.868Z,8.24
2018-10-09T06:53:36.945Z,8.38
2018-10-09T06:54:36.928Z,8.35
2018-10-09T06:55:37.036Z,8.35
2018-10-09T06:56:36.772Z,8.37
2018-10-09T06:57:36.808Z,8.39
2018-10-09T06:58:37.094Z,8.42
2018-10-09T06:59:36.710Z,8.53
2018-10-09T07:00:36.692Z,8.49
2018-10-09T07:01:36.666Z,8.63
2018-10-09T07:02:36.648Z,8.60
2018-10-09T07:03:36.623Z,8.68
2018-10-09T07:04:36.972Z,8.63
2018-10-09T07:05:36.589Z,8.78
2018-10-09T07:06:36.637Z,8.78
2018-10-09T07:07:36.551Z,8.90
2018-10-09T07:08:36.556Z,8.93
2018-10-09T07:09:36.508Z,8.95
2018-10-09T07:10:36.844Z,9.01
2018-10-09T07:11:36.529Z,9.03
2018-10-09T07:12:36.659Z,9.09
2018-10-09T07:13:36.432Z,9.14
2018-10-09T07:14:36.910Z,9.18
2018-10-09T07:15:36.397Z,9.30
2018-10-09T07:16:36.705Z,9.29
2018-10-09T07:17:36.366Z,9.44
2018-10-09T07:18:36.400Z,9.54
2018-10-09T07:19:36.325Z,9.51
2018-10-09T07:20:36.347Z,9.62
2018-10-09T07:21:36.283Z,9.73
2018-10-09T07:22:36.558Z,9.72
2018-10-09T07:23:36.252Z,9.81
2018-10-09T07:24:36.561Z,9.90
2018-10-09T07:25:36.282Z,9.98
2018-10-09T07:26:36.225Z,10.05
2018-10-09T07:27:36.162Z,9.94
2018-10-09T07:28:36.480Z,9.99
2018-10-09T07:29:36.131Z,10.09
2018-10-09T07:30:36.213Z,9.99
2018-10-09T07:31:36.098Z,10.17
2018-10-09T07:32:36.092Z,10.14
2018-10-09T07:33:36.056Z,10.28
2018-10-09T07:34:36.100Z,10.42
2018-10-09T07:35:36.365Z,10.49
2018-10-09T07:36:36.002Z,10.62
2018-10-09T07:37:36.085Z,10.79
2018-10-09T07:38:35.963Z,10.79
2018-10-09T07:39:36.042Z,10.95
2018-10-09T07:40:36.096Z,11.11
2018-10-09T07:41:36.203Z,11.15
2018-10-09T07:42:36.455Z,11.22
2018-10-09T07:43:35.978Z,11.20
2018-10-09T07:44:36.013Z,11.36
2018-10-09T07:45:35.992Z,11.45
2018-10-09T07:46:36.229Z,11.56
2018-10-09T07:47:36.655Z,11.70
2018-10-09T07:48:36.275Z,11.71
2018-10-09T07:49:35.955Z,11.84
2018-10-09T07:50:35.809Z,11.84
2018-10-09T07:51:35.971Z,12.10
2018-10-09T07:53:36.192Z,12.38
2018-10-09T07:55:37.103Z,12.61
2018-10-09T07:56:35.990Z,12.72
2018-10-09T07:58:35.766Z,13.04
2018-10-09T08:00:35.724Z,13.36
2018-10-09T08:01:35.734Z,13.39
2018-10-09T08:02:35.878Z,13.60
2018-10-09T08:03:35.524Z,13.61
2018-10-09T08:04:35.555Z,13.57
2018-10-09T08:05:35.939Z,13.57
2018-10-09T08:06:35.566Z,13.63
2018-10-09T08:07:35.542Z,13.58
2018-10-09T08:08:35.830Z,13.45
2018-10-09T08:09:35.835Z,13.39
2018-10-09T08:10:35.436Z,13.35
2018-10-09T08:11:35.382Z,13.20
2018-10-09T08:12:35.431Z,13.05
2018-10-09T08:14:35.435Z,13.06
2018-10-09T08:16:35.739Z,13.36
2018-10-09T08:17:35.307Z,13.51
2018-10-09T08:18:35.375Z,13.68
2018-10-09T08:19:35.758Z,13.82
2018-10-09T08:21:35.314Z,14.04
2018-10-09T08:22:35.444Z,14.08
2018-10-09T08:23:35.205Z,14.16
2018-10-09T08:24:35.206Z,14.21
2018-10-09T08:25:35.177Z,14.30
2018-10-09T08:26:35.129Z,14.26
2018-10-09T08:27:35.120Z,14.45
2018-10-09T08:28:35.094Z,14.61
2018-10-09T08:29:35.712Z,14.59
2018-10-09T08:30:35.061Z,14.66
2018-10-09T08:31:35.051Z,14.74
2018-10-09T08:32:35.089Z,14.73
2018-10-09T08:33:35.020Z,14.93
2018-10-09T08:34:35.034Z,14.95
2018-10-09T08:35:35.335Z,14.87
2018-10-09T08:36:35.080Z,14.97
2018-10-09T08:37:34.954Z,15.10
2018-10-09T08:38:34.949Z,15.08
2018-10-09T08:39:34.967Z,15.20
2018-10-09T08:41:35.255Z,15.29
2018-10-09T08:42:34.873Z,15.52
2018-10-09T08:43:34.884Z,15.48
2018-10-09T08:44:34.996Z,15.48
2018-10-09T08:45:34.831Z,15.52
2018-10-09T08:46:34.811Z,15.56
2018-10-09T08:47:35.477Z,15.43
2018-10-09T08:48:35.131Z,15.60
2018-10-09T08:49:35.047Z,15.80
2018-10-09T08:50:34.893Z,15.84
2018-10-09T08:51:35.538Z,15.84
2018-10-09T08:52:34.776Z,15.83
2018-10-09T08:53:35.022Z,15.93
2018-10-09T08:54:34.752Z,15.88
2018-10-09T08:55:34.945Z,16.06
2018-10-09T08:56:34.715Z,16.17
2018-10-09T08:57:34.827Z,16.36
2018-10-09T08:58:34.661Z,16.44
2018-10-09T08:59:34.679Z,16.43
2018-10-09T09:00:34.942Z,16.46
2018-10-09T09:02:34.592Z,16.61
2018-10-09T09:03:34.633Z,16.59
2018-10-09T09:04:34.559Z,16.55
2018-10-09T09:05:34.604Z,16.79
2018-10-09T09:06:34.574Z,16.97
2018-10-09T09:07:34.878Z,16.94
2018-10-09T09:08:34.501Z,16.82
2018-10-09T09:09:35.722Z,16.84
2018-10-09T09:10:34.476Z,16.97
2018-10-09T09:11:34.536Z,17.04
2018-10-09T09:12:34.503Z,17.22
2018-10-09T09:13:34.834Z,17.39
2018-10-09T09:14:34.566Z,17.49
2018-10-09T09:15:34.456Z,17.41
2018-10-09T09:16:34.502Z,17.68
2018-10-09T09:17:34.473Z,17.83
2018-10-09T09:18:34.424Z,17.96
2018-10-09T09:19:34.367Z,18.17
2018-10-09T09:20:34.762Z,18.20
2018-10-09T09:21:34.334Z,18.33
2018-10-09T09:22:34.366Z,18.27
2018-10-09T09:23:34.304Z,18.31
2018-10-09T09:24:34.590Z,18.21
2018-10-09T09:25:34.281Z,18.21
2018-10-09T09:26:34.727Z,18.15
2018-10-09T09:27:34.907Z,18.13
2018-10-09T09:28:34.411Z,17.73
2018-10-09T09:29:34.327Z,17.28
2018-10-09T09:30:34.780Z,17.10
2018-10-09T09:31:34.217Z,16.94
2018-10-09T09:32:34.191Z,16.95
2018-10-09T09:33:34.182Z,16.90
2018-10-09T09:34:34.543Z,16.69
2018-10-09T09:35:34.158Z,16.54
2018-10-09T09:36:34.139Z,16.57
2018-10-09T09:37:34.138Z,16.98
2018-10-09T09:38:34.116Z,17.19
2018-10-09T09:39:34.160Z,17.35
2018-10-09T09:40:34.442Z,17.79
2018-10-09T09:41:34.133Z,17.90
2018-10-09T09:43:34.106Z,18.18
2018-10-09T09:44:34.108Z,18.21
2018-10-09T09:45:34.040Z,18.15
2018-10-09T09:46:34.589Z,18.15
2018-10-09T09:47:34.053Z,18.13
2018-10-09T09:48:33.993Z,17.99
2018-10-09T09:49:34.080Z,18.05
2018-10-09T09:50:33.972Z,18.03
2018-10-09T09:51:33.964Z,17.87
2018-10-09T09:52:34.253Z,17.76
2018-10-09T09:53:33.942Z,17.75
2018-10-09T09:54:33.978Z,17.52
2018-10-09T09:55:33.919Z,17.45
2018-10-09T09:56:33.925Z,17.43
2018-10-09T09:57:33.986Z,17.41
2018-10-09T09:58:34.548Z,17.30
2018-10-09T09:59:33.884Z,17.32
2018-10-09T10:00:33.863Z,17.28
2018-10-09T10:01:33.943Z,17.24
2018-10-09T10:02:33.826Z,17.31
2018-10-09T10:03:34.171Z,17.66
2018-10-09T10:04:34.163Z,17.97
2018-10-09T10:05:33.842Z,18.27
2018-10-09T10:06:33.786Z,18.42
2018-10-09T10:07:33.924Z,18.81
2018-10-09T10:08:33.764Z,18.94
2018-10-09T10:09:33.798Z,19.01
2018-10-09T10:10:34.084Z,19.12
2018-10-09T10:11:33.742Z,18.86
2018-10-09T10:12:33.815Z,19.04
2018-10-09T10:13:33.780Z,19.24
2018-10-09T10:14:33.700Z,19.37
2018-10-09T10:15:33.711Z,19.32
2018-10-09T10:16:35.203Z,19.30
2018-10-09T10:17:33.856Z,19.38
2018-10-09T10:18:33.723Z,19.59
2018-10-09T10:19:33.700Z,19.37
2018-10-09T10:21:33.908Z,19.26
2018-10-09T10:22:33.687Z,19.27
2018-10-09T10:23:33.961Z,19.27
2018-10-09T10:24:33.594Z,19.31
2018-10-09T10:25:33.652Z,19.27
2018-10-09T10:28:33.676Z,18.57
2018-10-09T10:29:33.591Z,18.38
2018-10-09T10:30:33.889Z,18.57
2018-10-09T10:31:33.523Z,18.56
2018-10-09T10:32:33.570Z,18.70
2018-10-09T10:33:33.527Z,18.81
2018-10-09T10:34:33.613Z,18.68
2018-10-09T10:35:33.593Z,18.74
2018-10-09T10:36:33.533Z,18.57
2018-10-09T10:37:33.824Z,18.57
2018-10-09T10:38:33.513Z,18.58
2018-10-09T10:39:33.441Z,18.85
2018-10-09T10:40:33.440Z,18.86
2018-10-09T10:41:33.429Z,19.35
2018-10-09T10:42:33.417Z,19.54
2018-10-09T10:43:33.406Z,19.54
2018-10-09T10:44:33.771Z,19.41
2018-10-09T10:45:33.805Z,19.53
2018-10-09T10:46:33.694Z,19.57
2018-10-09T10:47:33.425Z,19.81
2018-10-09T10:48:34.186Z,19.96
2018-10-09T10:49:33.419Z,20.07
2018-10-09T10:50:33.390Z,20.27
2018-10-09T10:51:33.700Z,20.15
2018-10-09T10:52:33.390Z,20.07
2018-10-09T10:53:33.491Z,19.77
2018-10-09T10:54:33.359Z,19.54
2018-10-09T10:55:33.291Z,19.64
2018-10-09T10:56:33.347Z,19.57
2018-10-09T10:57:33.273Z,19.57
2018-10-09T10:58:33.633Z,19.63
2018-10-09T10:59:33.290Z,19.75
2018-10-09T11:00:33.249Z,19.72
2018-10-09T11:01:33.480Z,19.59
2018-10-09T11:03:33.279Z,19.79
2018-10-09T11:04:33.211Z,20.05
2018-10-09T11:06:33.540Z,19.96
2018-10-09T11:07:33.181Z,19.92
2018-10-09T11:08:33.222Z,20.14
2018-10-09T11:09:33.295Z,20.12
2018-10-09T11:10:33.158Z,20.05
2018-10-09T11:11:33.153Z,20.15
2018-10-09T11:12:33.239Z,20.05
2018-10-09T11:13:33.428Z,19.96
2018-10-09T11:14:33.134Z,19.79
2018-10-09T11:15:33.105Z,19.78
2018-10-09T11:16:33.149Z,19.97
2018-10-09T11:17:33.289Z,19.93
2018-10-09T11:18:33.127Z,19.81
2018-10-09T11:19:33.832Z,19.96
2018-10-09T11:20:33.414Z,19.99
2018-10-09T11:21:33.102Z,19.71
2018-10-09T11:22:33.094Z,19.56
2018-10-09T11:23:33.348Z,19.56
2018-10-09T11:24:33.036Z,19.59
2018-10-09T11:25:33.035Z,19.60
2018-10-09T11:26:33.399Z,19.41
2018-10-09T11:27:33.517Z,19.53
2018-10-09T11:28:32.989Z,19.42
2018-10-09T11:29:33.266Z,19.34
2018-10-09T11:30:32.972Z,19.41
2018-10-09T11:31:33.102Z,19.53
2018-10-09T11:32:33.393Z,19.63
2018-10-09T11:33:33.049Z,19.56
2018-10-09T11:34:32.932Z,19.52
2018-10-09T11:35:32.924Z,19.39
2018-10-09T11:36:32.962Z,19.42
2018-10-09T11:37:32.957Z,19.57
2018-10-09T11:38:33.247Z,19.63
2018-10-09T11:39:32.878Z,19.77
2018-10-09T11:40:32.877Z,19.77
2018-10-09T11:41:32.868Z,20.00
2018-10-09T11:43:32.910Z,19.90
2018-10-09T11:44:33.081Z,20.08
2018-10-09T11:45:33.179Z,20.26
2018-10-09T11:46:32.838Z,20.34
2018-10-09T11:47:32.807Z,20.55
2018-10-09T11:48:32.841Z,20.79
2018-10-09T11:49:32.834Z,20.97
2018-10-09T11:50:32.776Z,20.88
2018-10-09T11:51:33.120Z,20.74
2018-10-09T11:52:32.895Z,20.55
2018-10-09T11:53:32.798Z,20.46
2018-10-09T11:54:32.801Z,20.71
2018-10-09T11:55:32.776Z,20.74
2018-10-09T11:56:32.733Z,20.65
2018-10-09T11:57:33.167Z,20.56
2018-10-09T11:58:32.752Z,20.63
2018-10-09T11:59:32.700Z,20.90
2018-10-09T12:00:32.734Z,21.18
2018-10-09T12:01:32.682Z,21.22
2018-10-09T12:02:32.727Z,21.11
2018-10-09T12:03:33.016Z,21.23
2018-10-09T12:04:33.029Z,21.23
2018-10-09T12:05:32.671Z,21.47
2018-10-09T12:06:32.808Z,21.74
2018-10-09T12:07:32.625Z,21.81
2018-10-09T12:10:32.967Z,22.18
2018-10-09T12:11:32.667Z,22.09
2018-10-09T12:13:32.745Z,22.19
2018-10-09T12:15:32.591Z,21.69
2018-10-09T12:16:32.674Z,21.37
2018-10-09T12:17:33.157Z,20.95
2018-10-09T12:18:32.701Z,20.71
2018-10-09T12:19:32.589Z,20.74
2018-10-09T12:20:32.531Z,20.88
2018-10-09T12:21:32.599Z,21.11
2018-10-09T12:22:32.568Z,21.41
2018-10-09T12:23:32.503Z,21.53
2018-10-09T12:24:33.093Z,21.90
2018-10-09T12:25:32.492Z,22.33
2018-10-09T12:26:32.485Z,22.27
2018-10-09T12:27:32.660Z,22.28
2018-10-09T12:28:32.479Z,22.70
2018-10-09T12:30:32.808Z,23.36
2018-10-09T12:31:32.510Z,23.37
2018-10-09T12:32:32.652Z,23.51
2018-10-09T12:33:32.434Z,23.34
2018-10-09T12:34:32.426Z,23.46
2018-10-09T12:35:32.422Z,23.52
2018-10-09T12:36:32.527Z,23.92
2018-10-09T12:37:32.769Z,24.33
2018-10-09T12:38:32.468Z,24.18
2018-10-09T12:40:32.394Z,24.23
2018-10-09T12:41:32.495Z,24.36
2018-10-09T12:42:32.586Z,24.23
2018-10-09T12:43:32.385Z,23.29
2018-10-09T12:45:32.723Z,22.70
2018-10-09T12:46:32.420Z,22.71
2018-10-09T12:47:32.404Z,22.88
2018-10-09T12:48:32.413Z,23.31
2018-10-09T12:49:32.348Z,23.52
2018-10-09T12:50:32.354Z,23.67
2018-10-09T12:51:32.343Z,23.84
2018-10-09T12:52:32.981Z,23.67
2018-10-09T12:53:32.327Z,24.10
2018-10-09T12:54:32.428Z,24.45
2018-10-09T12:55:32.306Z,24.44
2018-10-09T12:56:32.510Z,24.15
2018-10-09T12:57:32.297Z,23.88
2018-10-09T12:58:32.313Z,23.88
2018-10-09T12:59:32.593Z,23.89
2018-10-09T13:00:32.279Z,23.74
2018-10-09T13:01:32.331Z,23.33
2018-10-09T13:02:32.281Z,23.34
2018-10-09T13:03:32.263Z,23.67
2018-10-09T13:04:32.260Z,23.63
2018-10-09T13:05:32.659Z,23.69
2018-10-09T13:06:32.297Z,23.41
2018-10-09T13:07:32.249Z,22.89
2018-10-09T13:08:32.645Z,22.64
2018-10-09T13:09:32.246Z,22.70
2018-10-09T13:10:32.226Z,22.77
2018-10-09T13:11:32.524Z,23.03
2018-10-09T13:12:32.274Z,23.45
2018-10-09T13:13:32.209Z,23.91
2018-10-09T13:14:32.358Z,23.97
2018-10-09T13:15:32.197Z,24.18
2018-10-09T13:16:32.197Z,24.51
2018-10-09T13:17:32.600Z,23.88
2018-10-09T13:18:33.648Z,23.73
2018-10-09T13:19:32.192Z,23.63
2018-10-09T13:21:32.333Z,24.33
2018-10-09T13:22:32.410Z,24.71
2018-10-09T13:23:32.507Z,25.00
2018-10-09T13:24:32.251Z,24.78
2018-10-09T13:25:37.296Z,24.79
2018-10-09T13:27:33.546Z,24.22
2018-10-09T13:28:32.780Z,23.88
2018-10-09T13:29:32.416Z,24.22
2018-10-09T13:30:32.633Z,24.52
2018-10-09T13:31:32.161Z,24.84
2018-10-09T13:33:32.692Z,25.45
2018-10-09T13:34:32.220Z,25.26
2018-10-09T13:35:32.383Z,25.00
2018-10-09T13:36:32.272Z,24.79
2018-10-09T13:38:32.161Z,25.16
2018-10-09T13:39:32.091Z,25.06
2018-10-09T13:40:32.061Z,25.14
2018-10-09T13:41:32.455Z,25.27
2018-10-09T13:43:32.114Z,25.56
2018-10-09T13:44:32.030Z,24.85
2018-10-09T13:45:32.120Z,24.84
2018-10-09T13:46:32.019Z,24.89
2018-10-09T13:47:32.259Z,24.81